createdAt,value
2022-08-27T00:00:05.178Z,10.00
2022-08-27T00:02:35.921Z,7.10
2022-08-27T00:05:06.598Z,13.23
2022-08-27T00:07:36.163Z,8.63
2022-08-27T00:10:06.786Z,11.35
2022-08-27T00:12:37.403Z,10.60
2022-08-27T00:15:06.991Z,8.48
2022-08-27T00:17:35.535Z,8.52
2022-08-27T00:20:04.253Z,8.45
2022-08-27T00:22:32.067Z,8.82
2022-08-27T00:25:02.472Z,8.63
2022-08-27T00:27:31.085Z,8.38
2022-08-27T00:29:59.677Z,6.72
2022-08-27T00:32:29.289Z,8.20
2022-08-27T00:34:57.892Z,6.45
2022-08-27T00:37:26.502Z,8.75
2022-08-27T00:39:55.179Z,10.38
2022-08-27T00:42:24.736Z,11.55
2022-08-27T00:44:56.355Z,10.25
2022-08-27T00:47:28.998Z,6.50
2022-08-27T00:50:02.584Z,9.82
2022-08-27T00:53:02.380Z,7.88
2022-08-27T00:55:37.939Z,7.05
2022-08-27T00:58:18.601Z,6.10
2022-08-27T01:00:49.270Z,6.32
2022-08-27T01:03:20.165Z,9.00
2022-08-27T01:05:50.434Z,7.88
2022-08-27T01:08:23.060Z,9.02
2022-08-27T01:10:56.357Z,8.43
2022-08-27T01:13:54.453Z,8.93
2022-08-27T01:16:22.033Z,7.30
2022-08-27T01:18:52.647Z,9.80
2022-08-27T01:21:27.322Z,8.30
2022-08-27T01:24:19.795Z,10.30
2022-08-27T01:26:47.602Z,6.72
2022-08-27T01:29:18.224Z,11.45
2022-08-27T01:31:49.896Z,8.15
2022-08-27T01:34:18.430Z,9.10
2022-08-27T01:36:46.015Z,6.70
2022-08-27T01:39:14.630Z,10.07
2022-08-27T01:41:44.243Z,8.20
2022-08-27T01:44:13.850Z,6.20
2022-08-27T01:46:41.526Z,6.18
2022-08-27T01:49:13.121Z,11.50
2022-08-27T01:51:41.676Z,9.02
2022-08-27T01:54:09.261Z,7.60
2022-08-27T01:56:39.077Z,6.80
2022-08-27T01:59:07.480Z,7.13
2022-08-27T02:01:36.146Z,5.97
2022-08-27T02:04:04.727Z,8.40
2022-08-27T02:06:33.344Z,7.20
2022-08-27T02:09:00.944Z,5.75
2022-08-27T02:11:28.535Z,8.25
2022-08-27T02:13:57.153Z,8.88
2022-08-27T02:16:26.813Z,8.18
2022-08-27T02:18:58.385Z,7.57
2022-08-27T02:21:27.970Z,5.80
2022-08-27T02:23:57.602Z,5.40
2022-08-27T02:26:26.199Z,8.85
2022-08-27T02:28:55.842Z,11.32
2022-08-27T02:31:24.515Z,11.73
2022-08-27T02:33:54.053Z,11.98
2022-08-27T02:36:21.659Z,14.38
2022-08-27T02:38:50.238Z,10.35
2022-08-27T02:41:18.854Z,10.75
2022-08-27T02:43:47.442Z,14.07
2022-08-27T02:46:18.120Z,14.73
2022-08-27T02:48:47.944Z,8.75
2022-08-27T02:51:17.608Z,11.52
2022-08-27T02:53:47.879Z,10.75
2022-08-27T02:56:21.885Z,11.63
2022-08-27T02:58:50.111Z,27.23
2022-08-27T03:01:17.753Z,12.75
2022-08-27T03:03:46.326Z,13.23
2022-08-27T03:06:13.910Z,12.52
2022-08-27T03:08:52.725Z,20.45
2022-08-27T03:11:26.178Z,12.07
2022-08-27T03:13:54.788Z,10.52
2022-08-27T03:16:24.418Z,11.90
2022-08-27T03:18:55.173Z,14.15
2022-08-27T03:21:28.164Z,11.55
2022-08-27T03:23:57.188Z,15.32
2022-08-27T03:26:27.228Z,15.75
2022-08-27T03:28:57.425Z,10.93
2022-08-27T03:31:29.050Z,17.42
2022-08-27T03:34:00.669Z,15.50
2022-08-27T03:36:31.147Z,18.63
2022-08-27T03:39:01.879Z,16.63
2022-08-27T03:41:45.489Z,13.45
2022-08-27T03:44:21.677Z,12.55
2022-08-27T03:46:50.824Z,10.10
2022-08-27T03:49:21.331Z,7.97
2022-08-27T03:51:52.000Z,7.50
2022-08-27T03:54:20.611Z,11.18
2022-08-27T03:56:48.195Z,8.68
2022-08-27T03:59:16.772Z,14.32
2022-08-27T04:01:45.373Z,15.88
2022-08-27T04:04:14.038Z,16.15
2022-08-27T04:06:44.584Z,16.42
2022-08-27T04:09:12.233Z,22.27
2022-08-27T04:11:40.805Z,13.45
2022-08-27T04:14:20.832Z,10.35
2022-08-27T04:17:01.319Z,6.95
2022-08-27T04:19:31.749Z,8.35
2022-08-27T04:22:14.385Z,14.77
2022-08-27T04:24:43.412Z,6.93
2022-08-27T04:27:14.410Z,8.23
2022-08-27T04:29:47.190Z,7.82
2022-08-27T04:32:15.800Z,6.93
2022-08-27T04:34:46.822Z,7.38
2022-08-27T04:37:23.206Z,7.18
2022-08-27T04:40:06.722Z,13.27
2022-08-27T04:42:57.559Z,7.95
2022-08-27T04:45:35.052Z,7.63
2022-08-27T04:48:45.896Z,8.52
2022-08-27T04:51:37.342Z,16.20
2022-08-27T04:54:17.170Z,15.35
2022-08-27T04:56:46.776Z,8.15
2022-08-27T04:59:17.626Z,19.65
2022-08-27T05:01:46.026Z,17.15
2022-08-27T05:04:20.539Z,12.88
2022-08-27T05:06:50.227Z,7.97
2022-08-27T05:09:24.524Z,7.15
2022-08-27T05:11:56.466Z,6.30
2022-08-27T05:14:26.597Z,8.18
2022-08-27T05:16:56.319Z,12.68
2022-08-27T05:19:26.285Z,5.97
2022-08-27T05:21:58.956Z,20.00
2022-08-27T05:24:30.336Z,10.48
2022-08-27T05:27:00.152Z,8.43
2022-08-27T05:29:30.793Z,11.60
2022-08-27T05:32:06.041Z,17.60
2022-08-27T05:34:35.994Z,23.90
2022-08-27T05:37:08.882Z,15.18
2022-08-27T05:42:10.275Z,9.48
2022-08-27T05:44:43.161Z,20.02
2022-08-27T05:47:17.595Z,20.52
2022-08-27T05:49:48.647Z,23.65
2022-08-27T05:52:18.358Z,16.70
2022-08-27T05:54:46.907Z,25.73
2022-08-27T05:57:16.555Z,18.92
2022-08-27T06:00:05.200Z,22.52
2022-08-27T06:02:41.883Z,22.85
2022-08-27T06:05:14.821Z,29.90
2022-08-27T06:07:46.094Z,22.67
2022-08-27T06:10:24.751Z,21.75
2022-08-27T06:13:00.357Z,19.83
2022-08-27T09:45:35.695Z,15.98
2022-08-27T09:48:26.113Z,15.38
2022-08-27T09:51:00.643Z,14.15
2022-08-27T10:00:38.679Z,14.23
2022-08-27T10:03:16.468Z,15.60
2022-08-27T10:05:54.292Z,12.30
2022-08-27T10:08:58.114Z,18.55
2022-08-27T13:34:35.546Z,7.72
2022-08-27T13:37:21.115Z,8.10
2022-08-27T13:39:54.475Z,6.55
2022-08-27T13:42:27.718Z,7.35
2022-08-27T13:45:04.288Z,7.32
2022-08-27T13:47:47.710Z,6.82
2022-08-27T13:50:28.207Z,7.00
2022-08-27T13:53:25.740Z,6.55
2022-08-27T13:55:54.567Z,6.57
2022-08-27T13:58:30.573Z,7.32
2022-08-27T14:01:11.294Z,6.13
2022-08-27T14:03:49.225Z,6.78
2022-08-27T14:06:31.619Z,6.80
2022-08-27T14:09:25.821Z,6.32
